Airfield :
LOGIN :

Register | Disclaimer

   EN    FR    IT 

 










Legend :    VFR   Marginal VFR   IFR   Intensive IFR   Very Intensive IFR
Visi :
Ceiling :
>= 8 km
>= 3000ft
5 to 8 km
1000 to 3000 ft
1500m to 5 km
500 to 1000 ft
800 to 1500m
200 to 500 ft
< 800m
< 200 ft
Symbols :   Thunderstorms  Fog  Heavy snow  Heavy precipitations  Wind > 20 kt
SIGMETs :     Misc.  Thunderstorms  Icing  Turbulence  Mountain Waves  Volcanic Ashes







- Airport Elevation : 844 ft
- IATA code : OSR


LKMT - Ostrava-Mosnov

CURRENT METAR :
  • 111730Z VRB02KT 9999 FEW019 BKN022 01/M01 Q1013 NOSIG

EXPIRED METARs :
  • 111700Z 24004KT 9999 BKN029 00/M01 Q1012 NOSIG
  • 111630Z 22005KT 9999 SCT017 00/M00 Q1012 NOSIG
  • 111600Z 23004KT 9999 FEW019 01/M00 Q1012 NOSIG
  • 111530Z 21006KT 9999 SCT016 BKN024 01/M00 Q1011 NOSIG
  • 111500Z 24007KT 8000 -RASN SCT003 OVC016 01/M00 Q1011 NOSIG

TAF TAF LKMT
Valid from the 11 at 18:00 until the 13 at 00:00 UTC


111700Z 1118/1300 21006KT 8000 BKN025
TEMPO 1118/1300 4000 -RASN BKN014
PROB30
TEMPO 1118/1212 2500 SN BKN007
BECMG 1120/1122 33007KT
BECMG 1212/1215 04010KT
No reported NOTAMs for that airfield.



MET'MAP, your aeronautical weather chart ! - Copyright ORBIFLY December 2007 - Disclaimer

ORBIFLY MET'MAP TEAM :

Programming & Development : Alexandra Zaïnal
Concept & Development : Baudouin d'Aumeries
Co-Development & Prog : Marc-Olivier Méhu
Technical & hardware support : Manuel Goepfert

Contact : metmap@orbifly.com




SOURCES & CREDITS :

   NOAA